createdAt,value
2018-02-13T00:00:38.981Z,89.23
2018-02-13T00:01:38.831Z,89.04
2018-02-13T00:02:38.690Z,89.23
2018-02-13T00:03:38.560Z,89.04
2018-02-13T00:04:38.414Z,88.38
2018-02-13T00:05:38.277Z,88.38
2018-02-13T00:06:38.137Z,88.95
2018-02-13T00:07:38.001Z,88.85
2018-02-13T00:08:37.859Z,89.23
2018-02-13T00:09:37.723Z,89.32
2018-02-13T00:10:37.583Z,88.85
2018-02-13T00:11:37.444Z,89.13
2018-02-13T00:12:37.307Z,89.04
2018-02-13T00:13:37.167Z,89.32
2018-02-13T00:14:37.028Z,89.42
2018-02-13T00:15:36.889Z,89.13
2018-02-13T00:16:36.752Z,89.51
2018-02-13T00:17:36.613Z,89.89
2018-02-13T00:18:36.472Z,89.98
2018-02-13T00:19:36.340Z,89.98
2018-02-13T00:20:36.197Z,90.55
2018-02-13T00:21:36.058Z,90.17
2018-02-13T00:22:35.921Z,90.08
2018-02-13T00:23:35.780Z,90.08
2018-02-13T00:24:35.647Z,89.89
2018-02-13T00:25:35.506Z,89.98
2018-02-13T00:26:35.365Z,89.89
2018-02-13T00:27:35.227Z,89.70
2018-02-13T00:28:35.087Z,89.23
2018-02-13T00:29:34.948Z,89.13
2018-02-13T00:30:34.809Z,89.32
2018-02-13T00:31:34.672Z,88.95
2018-02-13T00:32:34.535Z,89.13
2018-02-13T00:33:34.395Z,88.85
2018-02-13T00:34:34.255Z,89.13
2018-02-13T00:35:34.117Z,89.04
2018-02-13T00:36:33.983Z,88.85
2018-02-13T00:37:33.840Z,88.85
2018-02-13T00:38:33.706Z,89.13
2018-02-13T00:39:33.562Z,89.23
2018-02-13T00:40:33.425Z,89.51
2018-02-13T00:41:33.289Z,89.04
2018-02-13T00:42:33.148Z,89.23
2018-02-13T00:43:33.012Z,88.38
2018-02-13T00:44:32.872Z,89.13
2018-02-13T00:45:32.743Z,89.42
2018-02-13T00:46:32.596Z,89.61
2018-02-13T00:47:32.461Z,89.79
2018-02-13T00:48:32.324Z,89.98
2018-02-13T00:49:32.185Z,90.08
2018-02-13T00:50:32.043Z,89.98
2018-02-13T00:51:31.906Z,89.70
2018-02-13T00:52:31.768Z,90.17
2018-02-13T00:53:31.629Z,89.13
2018-02-13T00:54:31.492Z,89.04
2018-02-13T00:55:31.355Z,89.23
2018-02-13T00:56:31.217Z,89.79
2018-02-13T00:57:31.081Z,90.08
2018-02-13T00:58:30.960Z,89.98
2018-02-13T00:59:30.803Z,90.26
2018-02-13T01:00:30.665Z,89.89
2018-02-13T01:01:30.525Z,89.79
2018-02-13T01:02:30.397Z,89.42
2018-02-13T01:03:30.249Z,89.79
2018-02-13T01:04:30.112Z,89.13
2018-02-13T01:05:29.973Z,89.51
2018-02-13T01:06:29.833Z,88.85
2018-02-13T01:07:29.696Z,89.70
2018-02-13T01:08:29.558Z,89.51
2018-02-13T01:09:29.421Z,90.08
2018-02-13T01:10:29.282Z,90.26
2018-02-13T01:11:29.141Z,90.45
2018-02-13T01:12:29.012Z,90.26
2018-02-13T01:13:28.867Z,90.26
2018-02-13T01:14:28.725Z,90.08
2018-02-13T01:15:28.591Z,89.61
2018-02-13T01:16:28.451Z,89.98
2018-02-13T01:17:28.312Z,89.70
2018-02-13T01:18:28.170Z,89.94
2018-02-13T01:19:28.032Z,89.84
2018-02-13T01:20:27.895Z,89.56
2018-02-13T01:21:27.754Z,89.37
2018-02-13T01:22:27.617Z,90.12
2018-02-13T01:23:27.479Z,89.47
2018-02-13T01:24:27.339Z,88.81
2018-02-13T01:25:27.200Z,88.71
2018-02-13T01:26:27.061Z,87.96
2018-02-13T01:27:26.921Z,88.81
2018-02-13T01:28:26.783Z,88.81
2018-02-13T01:29:26.643Z,87.58
2018-02-13T01:30:26.507Z,87.30
2018-02-13T01:31:26.367Z,87.30
2018-02-13T01:32:26.226Z,87.11
2018-02-13T01:33:26.085Z,86.64
2018-02-13T01:34:25.946Z,85.98
2018-02-13T01:35:25.809Z,85.79
2018-02-13T01:36:25.671Z,85.41
2018-02-13T01:37:25.530Z,84.56
2018-02-13T01:38:25.390Z,85.22
2018-02-13T01:39:25.249Z,84.94
2018-02-13T01:40:25.115Z,85.41
2018-02-13T01:41:24.974Z,85.32
2018-02-13T01:42:24.836Z,85.70
2018-02-13T01:43:24.693Z,85.51
2018-02-13T01:44:24.552Z,85.41
2018-02-13T01:45:24.414Z,84.56
2018-02-13T01:46:24.276Z,84.66
2018-02-13T01:47:24.136Z,85.04
2018-02-13T01:48:23.996Z,85.04
2018-02-13T01:49:23.859Z,85.41
2018-02-13T01:50:23.715Z,85.79
2018-02-13T01:51:23.577Z,85.79
2018-02-13T01:52:23.436Z,85.60
2018-02-13T01:53:23.297Z,85.79
2018-02-13T01:54:23.155Z,85.79
2018-02-13T01:55:23.020Z,84.85
2018-02-13T01:56:22.878Z,85.41
2018-02-13T01:57:22.738Z,85.32
2018-02-13T01:58:22.599Z,85.22
2018-02-13T01:59:22.462Z,84.75
2018-02-13T02:00:22.320Z,84.28
2018-02-13T02:01:22.181Z,84.09
2018-02-13T02:02:22.041Z,82.78
2018-02-13T02:03:21.900Z,82.50
2018-02-13T02:04:21.758Z,82.68
2018-02-13T02:05:21.621Z,82.87
2018-02-13T02:06:21.479Z,83.25
2018-02-13T02:07:21.340Z,83.81
2018-02-13T02:08:21.203Z,83.72
2018-02-13T02:09:21.060Z,83.34
2018-02-13T02:10:20.920Z,82.97
2018-02-13T02:11:20.783Z,82.40
2018-02-13T02:12:20.639Z,81.84
2018-02-13T02:13:20.502Z,81.18
2018-02-13T02:14:20.360Z,81.46
2018-02-13T02:15:20.220Z,81.84
2018-02-13T02:16:20.083Z,81.65
2018-02-13T02:17:19.944Z,81.74
2018-02-13T02:18:19.803Z,81.37
2018-02-13T02:19:19.666Z,81.46
2018-02-13T02:20:19.522Z,81.08
2018-02-13T02:21:19.382Z,80.71
2018-02-13T02:22:19.248Z,80.52
2018-02-13T02:23:19.105Z,80.33
2018-02-13T02:24:18.964Z,80.52
2018-02-13T02:25:18.821Z,80.99
2018-02-13T02:26:18.685Z,80.52
2018-02-13T02:27:18.544Z,80.80
2018-02-13T02:28:18.401Z,80.99
2018-02-13T02:29:18.263Z,80.99
2018-02-13T02:30:18.126Z,80.80
2018-02-13T02:31:17.984Z,80.61
2018-02-13T02:32:17.846Z,80.61
2018-02-13T02:33:17.705Z,80.61
2018-02-13T02:34:17.564Z,80.14
2018-02-13T02:35:17.425Z,80.14
2018-02-13T02:36:17.283Z,80.61
2018-02-13T02:37:17.145Z,80.42
2018-02-13T02:38:17.002Z,80.42
2018-02-13T02:39:16.866Z,80.05
2018-02-13T02:40:16.724Z,79.95
2018-02-13T02:41:16.582Z,80.42
2018-02-13T02:42:16.446Z,80.42
2018-02-13T02:43:16.303Z,80.24
2018-02-13T02:44:16.166Z,80.14
2018-02-13T02:45:16.032Z,80.42
2018-02-13T02:46:15.884Z,79.48
2018-02-13T02:47:15.743Z,79.67
2018-02-13T02:48:15.605Z,80.05
2018-02-13T02:49:15.466Z,80.61
2018-02-13T02:50:15.322Z,80.05
2018-02-13T02:51:15.199Z,80.24
2018-02-13T02:52:15.043Z,79.39
2018-02-13T02:53:14.905Z,80.24
2018-02-13T02:54:14.767Z,80.24
2018-02-13T02:55:14.622Z,79.39
2018-02-13T02:56:14.480Z,78.92
2018-02-13T02:57:14.338Z,78.82
2018-02-13T02:58:14.201Z,79.10
2018-02-13T02:59:14.061Z,79.58
2018-02-13T03:00:13.921Z,79.67
2018-02-13T03:01:13.780Z,79.67
2018-02-13T03:02:13.642Z,80.33
2018-02-13T03:03:13.497Z,80.61
2018-02-13T03:04:13.359Z,80.33
2018-02-13T03:05:13.217Z,80.42
2018-02-13T03:06:13.077Z,80.90
2018-02-13T03:07:12.936Z,80.99
2018-02-13T03:08:12.798Z,81.56
2018-02-13T03:09:12.659Z,82.21
2018-02-13T03:10:12.515Z,81.56
2018-02-13T03:11:12.375Z,81.37
2018-02-13T03:12:12.234Z,81.65
2018-02-13T03:13:12.096Z,81.56
2018-02-13T03:14:11.954Z,82.97
2018-02-13T03:15:11.811Z,82.31
2018-02-13T03:16:11.674Z,81.65
2018-02-13T03:17:11.533Z,81.18
2018-02-13T03:18:11.390Z,81.08
2018-02-13T03:19:11.256Z,81.37
2018-02-13T03:20:11.110Z,81.65
2018-02-13T03:21:10.969Z,81.46
2018-02-13T03:22:10.829Z,81.74
2018-02-13T03:23:10.686Z,81.37
2018-02-13T03:24:10.561Z,81.27
2018-02-13T03:25:10.405Z,81.93
2018-02-13T03:26:10.266Z,82.21
2018-02-13T03:27:10.124Z,82.97
2018-02-13T03:28:09.982Z,83.53
2018-02-13T03:29:09.841Z,83.72
2018-02-13T03:30:09.703Z,83.34
2018-02-13T03:31:09.559Z,83.91
2018-02-13T03:32:09.419Z,83.62
2018-02-13T03:33:09.301Z,83.72
2018-02-13T03:34:09.137Z,83.72
2018-02-13T03:35:08.998Z,83.81
2018-02-13T03:36:08.853Z,83.91
2018-02-13T03:37:08.714Z,83.81
2018-02-13T03:38:08.572Z,84.38
2018-02-13T03:39:08.431Z,84.19
2018-02-13T03:40:08.290Z,84.66
2018-02-13T03:41:08.149Z,84.47
2018-02-13T03:42:08.006Z,84.75
2018-02-13T03:43:07.867Z,84.47
2018-02-13T03:44:07.725Z,84.28
2018-02-13T03:45:07.583Z,84.28
2018-02-13T03:46:07.446Z,84.00
2018-02-13T03:47:07.301Z,83.81
2018-02-13T03:48:07.162Z,83.62
2018-02-13T03:49:07.021Z,83.72
2018-02-13T03:50:06.890Z,83.62
2018-02-13T03:51:06.739Z,83.62
2018-02-13T03:52:06.598Z,83.72
2018-02-13T03:53:06.458Z,82.59
2018-02-13T03:54:06.322Z,82.97
2018-02-13T03:55:06.178Z,82.31
2018-02-13T03:56:06.034Z,81.84
2018-02-13T03:57:05.892Z,82.59
2018-02-13T03:58:05.753Z,82.97
2018-02-13T03:59:05.608Z,82.97
2018-02-13T04:00:05.469Z,83.11
2018-02-13T04:01:05.351Z,84.00
2018-02-13T04:02:05.186Z,83.44
2018-02-13T04:03:05.045Z,83.44
2018-02-13T04:04:04.905Z,83.34
2018-02-13T04:05:04.763Z,83.49
2018-02-13T04:06:04.623Z,82.54
2018-02-13T04:07:04.480Z,82.64
2018-02-13T04:08:04.342Z,82.36
2018-02-13T04:09:04.201Z,81.60
2018-02-13T04:10:04.058Z,82.17
2018-02-13T04:11:03.917Z,82.17
2018-02-13T04:12:03.778Z,81.98
2018-02-13T04:13:03.636Z,82.54
2018-02-13T04:14:03.493Z,82.26
2018-02-13T04:15:03.357Z,82.64
2018-02-13T04:16:03.212Z,82.36
2018-02-13T04:17:03.070Z,82.64
2018-02-13T04:18:02.929Z,82.54
2018-02-13T04:19:02.789Z,82.36
2018-02-13T04:20:02.648Z,82.45
2018-02-13T04:21:02.506Z,81.79
2018-02-13T04:22:02.366Z,82.54
2018-02-13T04:23:02.223Z,81.89
2018-02-13T04:24:02.089Z,82.07
2018-02-13T04:25:01.944Z,81.98
2018-02-13T04:26:01.804Z,82.36
2018-02-13T04:27:01.660Z,82.26
2018-02-13T04:28:01.522Z,82.26
2018-02-13T04:29:01.378Z,82.17
2018-02-13T04:30:01.236Z,82.36
2018-02-13T04:31:01.094Z,82.73
2018-02-13T04:32:00.952Z,83.11
2018-02-13T04:33:00.818Z,83.49
2018-02-13T04:34:00.668Z,82.64
2018-02-13T04:35:00.528Z,82.45
2018-02-13T04:36:00.384Z,82.36
2018-02-13T04:37:00.248Z,82.45
2018-02-13T04:38:00.112Z,82.45
2018-02-13T04:38:59.965Z,82.26
2018-02-13T04:39:59.820Z,82.92
2018-02-13T04:40:59.679Z,83.30
2018-02-13T04:41:59.539Z,83.30
2018-02-13T04:42:59.395Z,83.20
2018-02-13T04:43:59.256Z,83.58
2018-02-13T04:44:59.113Z,83.49
2018-02-13T04:45:58.979Z,83.58
2018-02-13T04:46:58.831Z,83.68
2018-02-13T04:47:58.688Z,83.49
2018-02-13T04:48:58.550Z,83.68
2018-02-13T04:49:58.406Z,83.39
2018-02-13T04:50:58.265Z,83.20
2018-02-13T04:51:58.122Z,82.92
2018-02-13T04:52:57.981Z,82.73
2018-02-13T04:53:57.843Z,82.64
2018-02-13T04:54:57.699Z,82.07
2018-02-13T04:55:57.558Z,81.98
2018-02-13T04:56:57.415Z,81.70
2018-02-13T04:57:57.276Z,81.41
2018-02-13T04:58:57.133Z,82.36
2018-02-13T04:59:56.994Z,82.73
2018-02-13T05:00:56.853Z,83.30
2018-02-13T05:01:56.709Z,83.86
2018-02-13T05:02:56.570Z,83.49
2018-02-13T05:03:56.427Z,83.30
2018-02-13T05:04:56.334Z,83.77
2018-02-13T05:05:56.151Z,83.77
2018-02-13T05:06:56.003Z,83.49
2018-02-13T05:07:55.863Z,83.49
2018-02-13T05:08:55.720Z,83.49
2018-02-13T05:09:55.577Z,82.92
2018-02-13T05:10:55.441Z,82.36
2018-02-13T05:11:55.297Z,82.54
2018-02-13T05:12:55.157Z,82.92
2018-02-13T05:13:55.014Z,82.83
2018-02-13T05:14:54.875Z,82.73
2018-02-13T05:15:54.733Z,82.36
2018-02-13T05:16:54.590Z,81.79
2018-02-13T05:17:54.451Z,82.45
2018-02-13T05:18:54.403Z,82.83
2018-02-13T05:19:54.166Z,82.54
2018-02-13T05:20:54.025Z,82.54
2018-02-13T05:21:53.882Z,82.83
2018-02-13T05:22:53.741Z,82.64
2018-02-13T05:23:53.609Z,82.64
2018-02-13T05:24:53.461Z,82.73
2018-02-13T05:25:53.834Z,81.89
2018-02-13T05:26:53.178Z,82.17
2018-02-13T05:27:53.033Z,81.79
2018-02-13T05:28:52.901Z,81.79
2018-02-13T05:29:52.750Z,82.45
2018-02-13T05:30:52.610Z,81.60
2018-02-13T05:31:52.471Z,81.41
2018-02-13T05:32:52.331Z,81.51
2018-02-13T05:33:52.186Z,81.79
2018-02-13T05:34:52.046Z,82.45
2018-02-13T05:35:51.921Z,82.83
2018-02-13T05:36:51.761Z,82.45
2018-02-13T05:37:51.625Z,83.02
2018-02-13T05:38:51.558Z,82.92
2018-02-13T05:39:51.339Z,83.20
2018-02-13T05:40:51.194Z,82.83
2018-02-13T05:41:51.053Z,82.83
2018-02-13T05:42:50.909Z,82.64
2018-02-13T05:43:50.772Z,82.36
2018-02-13T05:44:50.724Z,81.98
2018-02-13T05:45:50.484Z,81.89
2018-02-13T05:46:51.010Z,82.45
2018-02-13T05:47:50.202Z,82.36
2018-02-13T05:48:50.060Z,81.41
2018-02-13T05:49:49.916Z,81.13
2018-02-13T05:50:49.777Z,80.94
2018-02-13T05:51:49.631Z,80.94
2018-02-13T05:52:49.489Z,81.41
2018-02-13T05:53:49.355Z,80.47
2018-02-13T05:54:49.206Z,79.35
2018-02-13T05:55:49.066Z,78.69
2018-02-13T05:56:48.925Z,77.56
2018-02-13T05:57:48.783Z,76.15
2018-02-13T05:58:48.639Z,75.58
2018-02-13T05:59:48.497Z,76.05
2018-02-13T06:00:48.352Z,75.87
2018-02-13T06:01:48.212Z,76.90
2018-02-13T06:02:48.070Z,77.00
2018-02-13T06:03:47.986Z,77.47
2018-02-13T06:04:47.788Z,78.31
2018-02-13T06:05:47.642Z,79.63
2018-02-13T06:06:47.499Z,79.63
2018-02-13T06:07:47.360Z,79.35
2018-02-13T06:08:47.223Z,80.29
2018-02-13T06:09:47.076Z,80.38
2018-02-13T06:10:46.933Z,80.29
2018-02-13T06:11:46.794Z,80.38
2018-02-13T06:12:46.651Z,79.35
2018-02-13T06:13:46.508Z,80.00
2018-02-13T06:14:46.365Z,80.47
2018-02-13T06:15:46.226Z,80.38
2018-02-13T06:16:46.091Z,80.47
2018-02-13T06:17:45.941Z,80.38
2018-02-13T06:18:45.798Z,80.85
2018-02-13T06:19:45.656Z,80.85
2018-02-13T06:20:45.516Z,80.76
2018-02-13T06:21:45.374Z,80.29
2018-02-13T06:22:45.232Z,80.10
2018-02-13T06:23:45.091Z,80.47
2018-02-13T06:24:44.948Z,81.04
2018-02-13T06:25:44.807Z,80.94
2018-02-13T06:26:44.664Z,81.13
2018-02-13T06:27:44.533Z,80.76
2018-02-13T06:28:44.381Z,81.04
2018-02-13T06:29:44.237Z,80.57
2018-02-13T06:30:44.096Z,81.04
2018-02-13T06:31:43.970Z,80.85
2018-02-13T06:32:43.816Z,80.85
2018-02-13T06:33:43.673Z,80.66
2018-02-13T06:34:43.529Z,80.66
2018-02-13T06:35:43.388Z,80.94
2018-02-13T06:36:43.247Z,81.04
2018-02-13T06:37:43.105Z,81.04
2018-02-13T06:38:42.966Z,81.04
2018-02-13T06:39:42.823Z,81.41
2018-02-13T06:40:42.680Z,81.41
2018-02-13T06:41:42.540Z,81.51
2018-02-13T06:42:42.392Z,81.04
2018-02-13T06:43:42.292Z,81.41
2018-02-13T06:44:42.138Z,81.23
2018-02-13T06:45:41.971Z,80.94
2018-02-13T06:46:41.825Z,80.94
2018-02-13T06:47:41.681Z,81.41
2018-02-13T06:48:42.366Z,81.32
2018-02-13T06:49:41.416Z,82.17
2018-02-13T06:50:41.307Z,82.17
2018-02-13T06:51:41.160Z,81.70
2018-02-13T06:52:40.971Z,81.98
2018-02-13T06:53:40.831Z,81.98
2018-02-13T06:54:40.690Z,81.79
2018-02-13T06:55:40.545Z,82.36
2018-02-13T06:56:40.408Z,82.73
2018-02-13T06:57:40.259Z,82.64
2018-02-13T06:58:40.117Z,82.64
2018-02-13T06:59:39.974Z,83.30
2018-02-13T07:00:39.834Z,82.83
2018-02-13T07:01:39.689Z,83.49
2018-02-13T07:02:39.551Z,83.77
2018-02-13T07:03:39.408Z,83.77
2018-02-13T07:04:39.264Z,83.30
2018-02-13T07:05:39.122Z,83.77
2018-02-13T07:06:38.981Z,83.58
2018-02-13T07:07:38.837Z,83.68
2018-02-13T07:08:38.697Z,83.68
2018-02-13T07:09:38.551Z,83.49
2018-02-13T07:10:38.412Z,83.58
2018-02-13T07:11:38.275Z,83.49
2018-02-13T07:12:38.128Z,83.58
2018-02-13T07:13:37.986Z,83.30
2018-02-13T07:14:37.844Z,83.11
2018-02-13T07:15:37.703Z,83.49
2018-02-13T07:16:37.560Z,83.96
2018-02-13T07:17:37.416Z,83.68
2018-02-13T07:18:37.277Z,83.20
2018-02-13T07:19:37.134Z,83.20
2018-02-13T07:20:36.993Z,83.39
2018-02-13T07:21:36.850Z,83.49
2018-02-13T07:22:36.707Z,83.30
2018-02-13T07:23:36.565Z,83.20
2018-02-13T07:24:36.427Z,82.83
2018-02-13T07:25:36.282Z,82.64
2018-02-13T07:26:36.141Z,82.54
2018-02-13T07:27:35.997Z,82.73
2018-02-13T07:28:35.858Z,82.73
2018-02-13T07:29:35.714Z,82.83
2018-02-13T07:30:35.574Z,82.64
2018-02-13T07:31:35.434Z,82.92
2018-02-13T07:32:35.288Z,83.58
2018-02-13T07:33:35.146Z,83.49
2018-02-13T07:34:35.005Z,83.39
2018-02-13T07:35:34.864Z,83.68
2018-02-13T07:36:34.728Z,83.30
2018-02-13T07:37:34.579Z,82.83
2018-02-13T07:38:34.443Z,82.83
2018-02-13T07:39:34.296Z,82.83
2018-02-13T07:40:34.158Z,82.92
2018-02-13T07:41:34.011Z,83.11
2018-02-13T07:42:33.871Z,83.49
2018-02-13T07:43:33.729Z,83.49
2018-02-13T07:44:33.593Z,83.49
2018-02-13T07:45:33.447Z,83.30
2018-02-13T07:46:33.305Z,83.49
2018-02-13T07:47:33.164Z,83.58
2018-02-13T07:48:33.022Z,83.77
2018-02-13T07:49:32.879Z,83.30
2018-02-13T07:50:32.764Z,83.77
2018-02-13T07:51:32.650Z,83.49
2018-02-13T07:52:32.456Z,83.58
2018-02-13T07:53:32.317Z,83.39
2018-02-13T07:54:32.174Z,83.49
2018-02-13T07:55:32.033Z,83.20
2018-02-13T07:56:31.945Z,83.49
2018-02-13T07:57:31.749Z,82.73
2018-02-13T07:58:31.608Z,83.39
2018-02-13T07:59:31.466Z,82.73
2018-02-13T08:00:31.325Z,83.30
2018-02-13T08:01:31.196Z,82.45
2018-02-13T08:02:31.042Z,82.73
2018-02-13T08:03:30.903Z,82.36
2018-02-13T08:04:30.761Z,81.51
2018-02-13T08:05:30.621Z,80.94
2018-02-13T08:06:30.479Z,80.00
2018-02-13T08:07:30.338Z,80.19
2018-02-13T08:08:30.195Z,80.00
2018-02-13T08:09:30.059Z,79.44
2018-02-13T08:10:29.914Z,79.25
2018-02-13T08:11:29.771Z,78.31
2018-02-13T08:12:29.631Z,78.50
2018-02-13T08:13:29.498Z,78.03
2018-02-13T08:14:29.410Z,77.75
2018-02-13T08:15:29.209Z,76.90
2018-02-13T08:16:29.067Z,77.00
2018-02-13T08:17:28.924Z,75.52
2018-02-13T08:18:28.786Z,75.15
2018-02-13T08:19:28.644Z,74.68
2018-02-13T08:20:28.507Z,73.93
2018-02-13T08:21:28.362Z,74.68
2018-02-13T08:22:28.225Z,74.68
2018-02-13T08:23:28.084Z,73.49
2018-02-13T08:24:27.940Z,71.98
2018-02-13T08:25:27.804Z,70.10
2018-02-13T08:26:27.661Z,69.06
2018-02-13T08:27:27.521Z,68.12
2018-02-13T08:28:27.387Z,67.02
2018-02-13T08:29:27.248Z,65.80
2018-02-13T08:30:27.107Z,64.20
2018-02-13T08:31:27.015Z,63.82
2018-02-13T08:32:26.836Z,63.63
2018-02-13T08:33:26.693Z,62.59
2018-02-13T08:34:26.556Z,61.55
2018-02-13T08:35:26.422Z,61.36
2018-02-13T08:36:26.285Z,60.93
2018-02-13T08:37:26.146Z,59.42
2018-02-13T08:38:26.009Z,58.82
2018-02-13T08:39:25.874Z,59.33
2018-02-13T08:40:25.739Z,59.61
2018-02-13T08:41:25.601Z,59.33
2018-02-13T08:42:25.468Z,58.95
2018-02-13T08:43:25.332Z,59.33
2018-02-13T08:44:25.194Z,58.10
2018-02-13T08:45:25.060Z,58.19
2018-02-13T08:46:24.925Z,57.91
2018-02-13T08:47:24.790Z,58.10
2018-02-13T08:48:24.655Z,57.15
2018-02-13T08:49:24.537Z,56.87
2018-02-13T08:50:24.384Z,57.12
2018-02-13T08:51:24.250Z,57.03
2018-02-13T08:52:24.113Z,57.12
2018-02-13T08:53:23.978Z,58.26
2018-02-13T08:54:23.844Z,59.11
2018-02-13T08:55:23.709Z,59.30
2018-02-13T08:56:23.574Z,60.89
2018-02-13T08:57:23.439Z,59.95
2018-02-13T08:58:23.302Z,59.70
2018-02-13T08:59:23.167Z,60.55
2018-02-13T09:00:23.035Z,60.17
2018-02-13T09:01:22.902Z,59.70
2018-02-13T09:02:22.762Z,60.46
2018-02-13T09:03:22.627Z,60.64
2018-02-13T09:04:22.493Z,60.64
2018-02-13T09:05:22.369Z,60.83
2018-02-13T09:06:22.224Z,60.46
2018-02-13T09:07:22.094Z,60.74
2018-02-13T09:08:21.954Z,61.68
2018-02-13T09:09:21.820Z,61.30
2018-02-13T09:10:22.376Z,61.30
2018-02-13T09:11:21.550Z,61.68
2018-02-13T09:12:21.415Z,61.77
2018-02-13T09:13:21.279Z,63.00
2018-02-13T09:14:21.146Z,62.91
2018-02-13T09:15:21.014Z,63.85
2018-02-13T09:16:20.877Z,62.81
2018-02-13T09:17:20.742Z,63.47
2018-02-13T09:18:20.605Z,63.29
2018-02-13T09:19:20.473Z,62.91
2018-02-13T09:20:20.369Z,61.90
2018-02-13T09:21:20.201Z,61.52
2018-02-13T09:22:20.113Z,60.86
2018-02-13T09:23:19.934Z,59.35
2018-02-13T09:24:19.802Z,58.72
2018-02-13T09:25:19.667Z,58.25
2018-02-13T09:26:19.533Z,57.40
2018-02-13T09:27:19.398Z,56.74
2018-02-13T09:28:19.266Z,56.93
2018-02-13T09:29:19.133Z,56.81
2018-02-13T09:30:18.998Z,56.99
2018-02-13T09:31:18.865Z,57.65
2018-02-13T09:32:18.733Z,58.31
2018-02-13T09:33:18.598Z,58.31
2018-02-13T09:34:18.463Z,58.12
2018-02-13T09:35:18.330Z,58.22
2018-02-13T09:36:18.200Z,58.69
2018-02-13T09:37:18.065Z,58.60
2018-02-13T09:38:17.935Z,58.12
2018-02-13T09:39:17.800Z,58.00
2018-02-13T09:40:17.689Z,58.10
2018-02-13T09:41:17.532Z,58.85
2018-02-13T09:42:17.397Z,58.79
2018-02-13T09:43:17.265Z,58.79
2018-02-13T09:44:17.133Z,59.07
2018-02-13T09:45:16.996Z,58.41
2018-02-13T09:46:16.862Z,58.12
2018-02-13T09:47:16.731Z,57.37
2018-02-13T09:48:16.596Z,57.28
2018-02-13T09:49:16.461Z,57.09
2018-02-13T09:50:16.328Z,57.28
2018-02-13T09:51:16.194Z,58.03
2018-02-13T09:52:16.063Z,58.50
2018-02-13T09:53:15.931Z,58.60
2018-02-13T09:54:15.797Z,58.22
2018-02-13T09:55:15.662Z,58.15
2018-02-13T09:56:15.527Z,57.21
2018-02-13T09:57:15.393Z,56.74
2018-02-13T09:58:15.260Z,55.96
2018-02-13T09:59:15.150Z,55.86
2018-02-13T10:00:14.995Z,56.99
2018-02-13T10:01:14.856Z,56.71
2018-02-13T10:02:14.726Z,56.90
2018-02-13T10:03:14.629Z,57.18
2018-02-13T10:04:14.459Z,56.99
2018-02-13T10:05:14.323Z,57.18
2018-02-13T10:06:14.192Z,56.99
2018-02-13T10:07:14.057Z,57.09
2018-02-13T10:08:13.922Z,57.18
2018-02-13T10:09:13.789Z,57.09
2018-02-13T10:10:13.657Z,56.81
2018-02-13T10:11:13.522Z,56.05
2018-02-13T10:12:13.388Z,55.20
2018-02-13T10:13:13.253Z,55.01
2018-02-13T10:14:13.131Z,54.54
2018-02-13T10:15:12.983Z,54.16
2018-02-13T10:16:12.851Z,53.31
2018-02-13T10:17:12.718Z,52.94
2018-02-13T10:18:12.585Z,53.13
2018-02-13T10:19:12.449Z,53.13
2018-02-13T10:20:12.315Z,53.13
2018-02-13T10:21:12.240Z,53.41
2018-02-13T10:22:12.049Z,53.31
2018-02-13T10:23:11.916Z,53.69
2018-02-13T10:24:11.780Z,53.78
2018-02-13T10:25:11.647Z,53.97
2018-02-13T10:26:11.514Z,54.26
2018-02-13T10:27:11.387Z,53.91
2018-02-13T10:28:11.244Z,54.28
2018-02-13T10:29:11.112Z,54.19
2018-02-13T10:30:10.980Z,53.15
2018-02-13T10:31:10.846Z,52.59
2018-02-13T10:32:10.715Z,52.30
2018-02-13T10:33:10.580Z,52.59
2018-02-13T10:34:10.445Z,53.15
2018-02-13T10:35:10.313Z,52.87
2018-02-13T10:36:10.182Z,53.53
2018-02-13T10:37:10.048Z,52.51
2018-02-13T10:38:09.919Z,51.48
2018-02-13T10:39:09.784Z,50.25
2018-02-13T10:40:09.651Z,49.30
2018-02-13T10:41:09.519Z,49.40
2018-02-13T10:42:09.385Z,50.79
2018-02-13T10:43:09.252Z,50.98
2018-02-13T10:44:09.121Z,50.98
2018-02-13T10:45:08.990Z,50.98
2018-02-13T10:46:08.854Z,51.45
2018-02-13T10:47:08.723Z,51.92
2018-02-13T10:48:08.591Z,51.07
2018-02-13T10:49:08.455Z,51.36
2018-02-13T10:50:08.325Z,51.86
2018-02-13T10:51:08.191Z,50.70
2018-02-13T10:52:08.074Z,50.91
2018-02-13T10:53:07.928Z,50.98
2018-02-13T10:54:07.797Z,51.07
2018-02-13T10:55:07.670Z,51.07
2018-02-13T10:56:07.534Z,51.17
2018-02-13T10:57:07.401Z,51.64
2018-02-13T10:58:07.270Z,51.92
2018-02-13T10:59:07.138Z,52.11
2018-02-13T11:00:07.006Z,51.86
2018-02-13T11:01:06.874Z,50.06
2018-02-13T11:02:06.743Z,49.30
2018-02-13T11:03:06.610Z,48.46
2018-02-13T11:04:06.478Z,47.89
2018-02-13T11:05:06.345Z,48.24
2018-02-13T11:06:06.223Z,49.19
2018-02-13T11:07:06.081Z,50.04
2018-02-13T11:08:05.953Z,49.78
2018-02-13T11:09:05.819Z,49.68
2018-02-13T11:10:05.685Z,49.30
2018-02-13T11:11:05.558Z,48.36
2018-02-13T11:12:05.425Z,48.65
2018-02-13T11:13:05.291Z,48.55
2018-02-13T11:14:05.165Z,47.32
2018-02-13T11:15:05.031Z,47.99
2018-02-13T11:16:04.897Z,48.18
2018-02-13T11:17:04.767Z,47.89
2018-02-13T11:18:04.639Z,47.23
2018-02-13T11:19:04.504Z,47.99
2018-02-13T11:20:04.375Z,47.86
2018-02-13T11:21:04.241Z,48.93
2018-02-13T11:22:04.110Z,49.11
2018-02-13T11:23:03.983Z,48.36
2018-02-13T11:24:03.846Z,48.36
2018-02-13T11:25:03.714Z,48.05
2018-02-13T11:26:03.584Z,48.15
2018-02-13T11:27:03.450Z,47.58
2018-02-13T11:28:03.322Z,47.96
2018-02-13T11:29:03.186Z,48.18
2018-02-13T11:30:03.056Z,47.99
2018-02-13T11:31:02.922Z,48.27
2018-02-13T11:32:02.793Z,47.42
2018-02-13T11:33:02.660Z,46.09
2018-02-13T11:34:02.529Z,45.72
2018-02-13T11:35:02.397Z,45.25
2018-02-13T11:36:02.273Z,44.42
2018-02-13T11:37:02.134Z,43.09
2018-02-13T11:38:02.002Z,41.58
2018-02-13T11:39:01.871Z,41.39
2018-02-13T11:40:01.737Z,41.58
2018-02-13T11:41:01.608Z,41.28
2018-02-13T11:42:01.476Z,41.28
2018-02-13T11:43:01.344Z,42.22
2018-02-13T11:44:01.214Z,42.22
2018-02-13T11:45:01.083Z,42.88
2018-02-13T11:46:00.955Z,43.35
2018-02-13T11:47:00.827Z,43.07
2018-02-13T11:48:00.688Z,42.97
2018-02-13T11:49:00.558Z,42.69
2018-02-13T11:50:00.426Z,42.22
2018-02-13T11:51:00.299Z,42.41
2018-02-13T11:52:00.163Z,42.41
2018-02-13T11:53:00.037Z,42.60
2018-02-13T11:53:59.900Z,42.39
2018-02-13T11:54:59.770Z,42.96
2018-02-13T11:55:59.636Z,43.26
2018-02-13T11:56:59.511Z,42.97
2018-02-13T11:57:59.372Z,42.96
2018-02-13T11:58:59.239Z,43.26
2018-02-13T11:59:59.106Z,42.97
2018-02-13T12:00:58.977Z,42.60
2018-02-13T12:01:58.844Z,43.16
2018-02-13T12:02:58.711Z,42.60
2018-02-13T12:03:58.581Z,42.60
2018-02-13T12:04:58.449Z,42.13
2018-02-13T12:05:58.318Z,41.86
2018-02-13T12:06:58.186Z,42.03
2018-02-13T12:07:58.054Z,42.13
2018-02-13T12:08:57.919Z,42.34
2018-02-13T12:09:57.790Z,41.67
2018-02-13T12:10:57.658Z,40.71
2018-02-13T12:11:57.526Z,40.80
2018-02-13T12:12:57.393Z,41.20
2018-02-13T12:13:57.263Z,40.64
2018-02-13T12:14:57.132Z,39.88
2018-02-13T12:15:57.001Z,38.93
2018-02-13T12:16:56.874Z,39.03
2018-02-13T12:17:56.736Z,39.31
2018-02-13T12:18:56.606Z,40.16
2018-02-13T12:19:56.474Z,40.16
2018-02-13T12:20:56.344Z,39.67
2018-02-13T12:21:56.212Z,40.14
2018-02-13T12:22:56.081Z,39.86
2018-02-13T12:23:55.958Z,40.71
2018-02-13T12:24:55.816Z,40.61
2018-02-13T12:25:55.686Z,40.80
2018-02-13T12:26:55.555Z,40.05
2018-02-13T12:27:55.426Z,39.22
2018-02-13T12:28:55.292Z,38.07
2018-02-13T12:29:55.163Z,36.46
2018-02-13T12:30:55.036Z,37.23
2018-02-13T12:31:54.900Z,37.33
2018-02-13T12:32:54.770Z,37.99
2018-02-13T12:33:54.636Z,36.85
2018-02-13T12:34:54.507Z,37.04
2018-02-13T12:35:54.376Z,37.04
2018-02-13T12:36:54.242Z,36.95
2018-02-13T12:37:54.113Z,36.19
2018-02-13T12:38:53.982Z,36.10
2018-02-13T12:39:53.850Z,35.82
2018-02-13T12:40:53.720Z,35.06
2018-02-13T12:41:53.588Z,35.63
2018-02-13T12:42:53.479Z,34.76
2018-02-13T12:43:53.328Z,35.23
2018-02-13T12:44:53.195Z,35.52
2018-02-13T12:45:53.069Z,35.72
2018-02-13T12:46:52.938Z,35.35
2018-02-13T12:47:52.800Z,35.25
2018-02-13T12:48:52.669Z,35.53
2018-02-13T12:49:52.539Z,35.72
2018-02-13T12:50:52.408Z,35.72